Time;durP1;ratioP1;P1;durP2;ratioP2;P2;SDS_P1;SDS_P2;PMS_P1;PMS_P2;Temp;Humidity;BMP_temperature;BMP_pressure;BME280_temperature;BME280_humidity;BME280_pressure;Samples;Min_cycle;Max_cycle;Signal;HPM_P1;HPM_P2
2022/05/04 00:02:25;;;;;;;13.77;3.58;;;8.80;99.90;;;;;;5055784;28;20044;-67
2022/05/04 00:04:51;;;;;;;12.60;4.30;;;8.80;99.90;;;;;;5056444;28;20041;-65
2022/05/04 00:07:16;;;;;;;11.43;4.20;;;8.80;99.90;;;;;;5056274;28;20053;-66
2022/05/04 00:09:42;;;;;;;14.13;3.63;;;8.80;99.90;;;;;;5056144;28;20455;-67
2022/05/04 00:12:08;;;;;;;13.40;4.18;;;8.80;99.90;;;;;;5056298;28;20041;-67
2022/05/04 00:14:34;;;;;;;9.95;3.67;;;8.80;99.90;;;;;;5056566;28;20099;-67
2022/05/04 00:16:59;;;;;;;10.82;4.25;;;8.80;99.90;;;;;;5056285;28;20045;-67
2022/05/04 00:19:25;;;;;;;10.77;3.50;;;8.70;99.90;;;;;;5055378;28;20043;-66
2022/05/04 00:21:50;;;;;;;11.75;3.25;;;8.70;99.90;;;;;;5056030;28;20067;-67
2022/05/04 00:24:20;;;;;;;10.32;3.47;;;8.80;99.90;;;;;;5056147;28;20128;-66
2022/05/04 00:26:48;;;;;;;8.65;3.20;;;8.80;99.90;;;;;;5056022;28;20041;-67
2022/05/04 00:29:14;;;;;;;11.43;2.97;;;8.80;99.90;;;;;;5038507;28;20048;-66
2022/05/04 00:31:40;;;;;;;11.52;3.60;;;8.80;99.90;;;;;;5055626;28;20040;-66
2022/05/04 00:34:05;;;;;;;11.50;3.30;;;8.70;99.90;;;;;;5055670;28;20125;-67
2022/05/04 00:36:31;;;;;;;9.15;3.67;;;8.70;99.90;;;;;;5055184;28;20110;-67
2022/05/04 00:38:57;;;;;;;10.07;3.53;;;8.70;99.90;;;;;;5055705;28;20119;-67
2022/05/04 00:41:23;;;;;;;10.73;3.75;;;8.70;99.90;;;;;;5055731;28;20036;-67
2022/05/04 00:43:53;;;;;;;11.45;4.35;;;8.70;99.90;;;;;;5055217;28;20513;-67
2022/05/04 00:46:20;;;;;;;9.80;3.67;;;8.60;99.90;;;;;;5055624;28;20045;-66
2022/05/04 00:48:46;;;;;;;15.50;4.13;;;8.60;99.90;;;;;;5055488;28;20416;-66
2022/05/04 00:51:12;;;;;;;11.60;3.33;;;8.50;99.90;;;;;;5055481;28;20128;-67
2022/05/04 00:53:39;;;;;;;10.73;3.30;;;8.60;99.90;;;;;;5054734;28;20120;-66
2022/05/04 00:56:08;;;;;;;11.52;3.70;;;8.50;99.90;;;;;;5055037;28;20049;-67
2022/05/04 01:01:21;;;;;;;12.70;3.58;;;8.50;99.90;;;;;;5055392;28;20053;-66
2022/05/04 01:03:46;;;;;;;8.63;3.25;;;8.50;99.90;;;;;;5054686;28;20444;-67
2022/05/04 01:06:12;;;;;;;11.82;3.45;;;8.50;99.90;;;;;;5055391;28;20095;-68
2022/05/04 01:08:39;;;;;;;9.60;3.20;;;8.40;99.90;;;;;;5054764;28;20545;-67
2022/05/04 01:11:04;;;;;;;15.13;3.70;;;8.50;99.90;;;;;;5054748;28;20053;-66
2022/05/04 01:13:31;;;;;;;8.40;3.42;;;8.50;99.90;;;;;;5055119;28;20481;-66
2022/05/04 01:15:56;;;;;;;11.57;2.90;;;8.50;99.90;;;;;;5055138;28;20056;-68
2022/05/04 01:18:22;;;;;;;9.13;3.15;;;8.40;99.90;;;;;;5054756;28;20044;-66
2022/05/04 01:20:47;;;;;;;10.73;3.63;;;8.40;99.90;;;;;;5055031;28;20099;-67
2022/05/04 01:23:13;;;;;;;7.40;3.65;;;8.40;99.90;;;;;;5054991;28;20059;-66
2022/05/04 01:25:39;;;;;;;12.57;3.40;;;8.40;99.90;;;;;;5054587;28;20079;-66
2022/05/04 01:28:05;;;;;;;9.65;3.40;;;8.40;99.90;;;;;;5055001;28;20442;-66
2022/05/04 01:30:32;;;;;;;13.73;4.13;;;8.40;99.90;;;;;;5054770;28;20041;-67
2022/05/04 01:32:59;;;;;;;13.13;3.45;;;8.40;99.90;;;;;;5054201;28;20060;-65
2022/05/04 01:35:25;;;;;;;9.20;3.28;;;8.40;99.90;;;;;;5054887;28;20363;-66
2022/05/04 01:37:50;;;;;;;7.15;3.22;;;8.40;99.90;;;;;;5054884;28;20045;-66
2022/05/04 01:40:16;;;;;;;12.57;3.63;;;8.40;99.90;;;;;;5054777;28;20124;-66
2022/05/04 01:42:41;;;;;;;8.52;3.00;;;8.30;99.90;;;;;;5054021;28;20092;-66
2022/05/04 01:45:09;;;;;;;20.35;4.68;;;8.30;99.90;;;;;;5054756;28;20416;-68
2022/05/04 01:47:35;;;;;;;14.68;3.30;;;8.30;99.90;;;;;;5054809;28;20080;-66
2022/05/04 01:50:01;;;;;;;11.40;3.67;;;8.30;99.90;;;;;;5054844;28;20348;-66
2022/05/04 01:52:27;;;;;;;11.63;3.20;;;8.30;99.90;;;;;;5054712;28;20070;-67
2022/05/04 01:54:52;;;;;;;7.13;3.40;;;8.30;99.90;;;;;;5054438;28;20041;-67
2022/05/04 01:57:20;;;;;;;11.18;3.58;;;8.20;99.90;;;;;;5054574;28;20048;-64
2022/05/04 01:59:45;;;;;;;9.63;3.33;;;8.30;99.90;;;;;;5053889;28;20060;-66
2022/05/04 02:02:11;;;;;;;11.77;2.90;;;8.30;99.90;;;;;;5054330;28;20049;-66
2022/05/04 02:04:38;;;;;;;9.65;3.35;;;8.30;99.90;;;;;;5037001;28;20374;-66
2022/05/04 02:07:04;;;;;;;9.20;3.47;;;8.40;99.90;;;;;;5054739;28;20045;-66
2022/05/04 02:09:30;;;;;;;7.57;3.13;;;8.40;99.90;;;;;;5041185;28;20055;-67
2022/05/04 02:11:56;;;;;;;12.68;3.90;;;8.40;99.90;;;;;;5058647;28;20439;-66
2022/05/04 02:14:21;;;;;;;10.18;3.10;;;8.40;99.90;;;;;;5058813;28;20055;-67
2022/05/04 02:16:47;;;;;;;11.25;3.45;;;8.40;99.90;;;;;;5057742;28;20122;-66
2022/05/04 02:19:12;;;;;;;16.60;4.18;;;8.30;99.90;;;;;;5058299;28;20053;-66
2022/05/04 02:21:39;;;;;;;6.95;3.28;;;8.30;99.90;;;;;;5058338;28;20052;-65
2022/05/04 02:24:05;;;;;;;17.00;4.30;;;8.30;99.90;;;;;;5058350;28;20096;-66
2022/05/04 02:26:30;;;;;;;8.85;3.47;;;8.30;99.90;;;;;;5055161;28;20049;-66
2022/05/04 02:28:56;;;;;;;10.35;3.47;;;8.20;99.90;;;;;;5058394;28;20045;-65
2022/05/04 02:31:21;;;;;;;11.40;3.45;;;8.20;99.90;;;;;;5058124;28;20186;-67
2022/05/04 02:33:47;;;;;;;13.95;3.17;;;8.20;99.90;;;;;;5057158;28;20053;-65
2022/05/04 02:38:58;;;;;;;9.23;3.22;;;8.20;99.90;;;;;;5040213;28;20048;-66
2022/05/04 02:41:24;;;;;;;9.88;3.22;;;8.30;99.90;;;;;;5058072;28;20049;-65
2022/05/04 02:43:49;;;;;;;9.13;4.00;;;8.30;99.90;;;;;;5058119;28;20553;-68
2022/05/04 02:46:18;;;;;;;9.18;3.25;;;8.30;99.90;;;;;;5057903;28;20332;-67
2022/05/04 02:48:44;;;;;;;8.80;3.40;;;8.30;99.90;;;;;;5057547;28;20526;-66
2022/05/04 02:51:09;;;;;;;7.03;3.30;;;8.40;99.90;;;;;;5057055;28;20187;-66
2022/05/04 02:53:35;;;;;;;8.90;3.15;;;8.40;99.90;;;;;;5057988;28;20363;-67
2022/05/04 02:56:01;;;;;;;11.43;4.80;;;8.40;99.90;;;;;;5057254;28;20109;-66
2022/05/04 02:58:27;;;;;;;7.07;3.67;;;8.40;99.90;;;;;;5057678;28;20045;-65
2022/05/04 03:00:52;;;;;;;9.13;3.47;;;8.40;99.90;;;;;;5057630;28;20214;-66
2022/05/04 03:03:18;;;;;;;8.73;3.80;;;8.40;99.90;;;;;;5057625;28;20076;-65
2022/05/04 03:05:44;;;;;;;12.10;3.25;;;8.40;99.90;;;;;;5057692;28;20041;-66
2022/05/04 03:08:10;;;;;;;8.80;3.75;;;8.30;99.90;;;;;;5056801;28;20041;-68
2022/05/04 03:11:54;;;;;;;8.55;3.85;;;8.40;99.90;;;;;;5057380;28;20060;-65
2022/05/04 03:13:21;;;;;;;8.52;3.20;;;8.40;99.90;;;;;;5057599;28;20044;-67
2022/05/04 03:15:47;;;;;;;8.02;3.40;;;8.40;99.90;;;;;;5057409;28;20413;-67
2022/05/04 03:18:12;;;;;;;8.32;3.20;;;8.30;99.90;;;;;;5039197;28;20136;-66
2022/05/04 03:20:38;;;;;;;7.72;3.97;;;8.30;99.90;;;;;;5057497;28;20037;-68
2022/05/04 03:23:03;;;;;;;7.97;3.40;;;8.30;99.90;;;;;;5057112;28;20463;-67
2022/05/04 03:25:29;;;;;;;9.55;3.53;;;8.20;99.90;;;;;;5056327;28;20363;-67
2022/05/04 03:27:55;;;;;;;9.05;3.55;;;8.20;99.90;;;;;;5057395;28;20044;-65
2022/05/04 03:30:20;;;;;;;15.63;3.65;;;8.20;99.90;;;;;;5056992;28;20056;-65
2022/05/04 03:32:46;;;;;;;9.15;3.55;;;8.20;99.90;;;;;;5039614;28;20049;-65
2022/05/04 03:35:12;;;;;;;10.57;3.80;;;8.20;99.90;;;;;;5057150;28;20049;-66
2022/05/04 03:37:37;;;;;;;14.50;3.60;;;8.20;99.90;;;;;;5057015;28;20111;-66
2022/05/04 03:40:03;;;;;;;7.57;3.90;;;8.20;99.90;;;;;;5056649;28;20044;-65
2022/05/04 03:42:29;;;;;;;10.98;3.90;;;8.30;99.90;;;;;;5056295;28;20375;-65
2022/05/04 03:44:55;;;;;;;8.85;3.80;;;8.30;99.90;;;;;;5056837;28;20041;-66
2022/05/04 03:47:21;;;;;;;12.82;3.30;;;8.30;99.90;;;;;;5056916;28;20056;-67
2022/05/04 03:49:46;;;;;;;12.25;4.40;;;8.40;99.90;;;;;;5056798;28;20040;-67
2022/05/04 03:52:12;;;;;;;10.57;3.40;;;8.30;99.90;;;;;;5056721;28;20049;-65
2022/05/04 03:54:37;;;;;;;10.50;2.90;;;8.30;99.90;;;;;;5056148;28;20040;-66
2022/05/04 03:57:04;;;;;;;8.77;3.20;;;8.30;99.90;;;;;;5056500;28;20053;-67
2022/05/04 03:59:31;;;;;;;8.77;3.90;;;8.40;99.90;;;;;;5055912;28;20045;-67
2022/05/04 04:01:57;;;;;;;13.88;3.92;;;8.40;99.90;;;;;;5056526;28;20049;-68
2022/05/04 04:04:22;;;;;;;12.50;4.10;;;8.30;99.90;;;;;;5056623;28;20045;-66
2022/05/04 04:06:48;;;;;;;6.97;3.30;;;8.30;99.90;;;;;;5056703;28;20045;-67
2022/05/04 04:09:13;;;;;;;11.50;3.67;;;8.30;99.90;;;;;;5056325;28;20056;-66
2022/05/04 04:11:39;;;;;;;8.27;3.30;;;8.40;99.90;;;;;;5056133;28;20052;-66
2022/05/04 04:14:05;;;;;;;11.93;4.07;;;8.40;99.90;;;;;;5056326;28;20529;-66
2022/05/04 04:16:30;;;;;;;9.45;3.50;;;8.40;99.90;;;;;;5038447;28;20080;-67
2022/05/04 04:18:56;;;;;;;12.38;4.68;;;8.40;99.90;;;;;;5056079;28;20110;-68
2022/05/04 04:24:06;;;;;;;5.65;2.90;;;8.40;99.90;;;;;;5056173;28;20045;-66
2022/05/04 04:26:32;;;;;;;10.52;3.90;;;8.40;99.90;;;;;;5056104;28;20045;-67
2022/05/04 04:28:59;;;;;;;9.95;3.72;;;8.40;99.90;;;;;;5055671;28;20053;-65
2022/05/04 04:31:24;;;;;;;15.25;3.78;;;8.40;99.90;;;;;;5055449;28;20037;-66
2022/05/04 04:33:50;;;;;;;7.53;3.33;;;8.40;99.90;;;;;;5054962;28;20352;-66
2022/05/04 04:36:15;;;;;;;9.60;3.47;;;8.40;99.90;;;;;;5038618;28;20098;-66
2022/05/04 04:38:41;;;;;;;14.30;4.72;;;8.40;99.90;;;;;;5055621;28;20071;-68
2022/05/04 04:41:06;;;;;;;9.32;3.85;;;8.30;99.90;;;;;;5055631;28;20072;-68
2022/05/04 04:43:32;;;;;;;10.23;4.03;;;8.40;99.90;;;;;;5055769;28;20044;-67
2022/05/04 04:45:58;;;;;;;7.57;3.97;;;8.30;99.90;;;;;;5038389;28;20103;-67
2022/05/04 04:48:24;;;;;;;8.55;4.40;;;8.40;99.90;;;;;;5055606;28;20055;-67
2022/05/04 04:50:49;;;;;;;10.45;4.25;;;8.40;99.90;;;;;;5055109;28;20068;-67
2022/05/04 04:53:17;;;;;;;6.72;3.55;;;8.40;99.90;;;;;;5055233;28;20469;-67
2022/05/04 04:55:44;;;;;;;12.13;3.78;;;8.40;99.90;;;;;;5055572;28;20053;-67
2022/05/04 04:58:10;;;;;;;11.18;4.32;;;8.40;99.90;;;;;;5038191;28;20048;-67
2022/05/04 05:00:36;;;;;;;10.20;3.63;;;8.50;99.90;;;;;;5055227;28;20044;-66
2022/05/04 05:03:03;;;;;;;7.78;3.60;;;8.50;99.90;;;;;;5034727;28;20475;-68
2022/05/04 05:05:28;;;;;;;15.13;4.25;;;8.50;99.90;;;;;;5055551;28;20041;-66
2022/05/04 05:07:54;;;;;;;9.20;3.50;;;8.50;99.90;;;;;;5054061;28;20049;-68
2022/05/04 05:10:19;;;;;;;10.68;3.90;;;8.50;99.90;;;;;;5055237;28;20052;-68
2022/05/04 05:12:45;;;;;;;9.35;3.90;;;8.50;99.90;;;;;;5054850;28;20410;-66
2022/05/04 05:17:55;;;;;;;11.75;3.60;;;8.60;99.90;;;;;;5055090;28;20049;-65
2022/05/04 05:20:21;;;;;;;10.18;3.50;;;8.60;99.90;;;;;;5054748;28;20041;-67
2022/05/04 05:22:47;;;;;;;9.70;4.00;;;8.60;99.90;;;;;;5055381;28;20045;-68
2022/05/04 05:25:12;;;;;;;9.93;4.07;;;8.60;99.90;;;;;;5054244;28;20053;-67
2022/05/04 05:27:38;;;;;;;8.25;3.40;;;8.70;99.90;;;;;;5037181;28;20072;-68
2022/05/04 05:30:04;;;;;;;10.77;3.92;;;8.70;99.90;;;;;;5051690;28;20041;-66
2022/05/04 05:32:30;;;;;;;13.55;3.90;;;8.70;99.90;;;;;;5055149;28;20057;-67
2022/05/04 05:34:55;;;;;;;9.45;3.88;;;8.70;99.90;;;;;;5054222;28;20068;-68
2022/05/04 05:37:21;;;;;;;11.35;3.97;;;8.70;99.90;;;;;;5054649;28;20048;-69
2022/05/04 05:39:47;;;;;;;9.00;4.38;;;8.70;99.90;;;;;;5054756;28;20049;-68
2022/05/04 05:42:13;;;;;;;10.27;4.00;;;8.70;99.90;;;;;;5054012;28;20049;-68
2022/05/04 05:44:38;;;;;;;12.23;3.30;;;8.70;99.90;;;;;;5054311;28;20429;-67
2022/05/04 05:47:04;;;;;;;11.13;3.78;;;8.70;99.90;;;;;;5054774;28;20048;-67
2022/05/04 05:49:30;;;;;;;14.70;4.28;;;8.80;99.90;;;;;;5054391;28;20049;-67
2022/05/04 05:51:56;;;;;;;14.88;3.58;;;8.80;99.90;;;;;;5054634;28;20143;-67
2022/05/04 05:54:22;;;;;;;11.95;3.20;;;8.80;99.90;;;;;;5054131;28;20060;-69
2022/05/04 05:56:48;;;;;;;8.55;3.22;;;8.80;99.90;;;;;;5054642;28;20379;-69
2022/05/04 05:59:14;;;;;;;8.25;3.58;;;8.90;99.90;;;;;;5053909;28;20041;-68
2022/05/04 06:01:41;;;;;;;7.93;3.35;;;8.90;99.90;;;;;;5054265;28;20048;-69
2022/05/04 06:04:07;;;;;;;8.35;3.53;;;8.90;99.90;;;;;;5054386;28;20045;-68
2022/05/04 06:06:32;;;;;;;10.68;3.80;;;8.80;99.90;;;;;;5054613;28;20098;-66
2022/05/04 06:08:58;;;;;;;9.90;3.58;;;8.80;99.90;;;;;;5054510;28;20525;-67
2022/05/04 06:11:23;;;;;;;11.68;3.22;;;8.70;99.90;;;;;;5054294;28;20044;-69
2022/05/04 06:13:53;;;;;;;6.28;3.05;;;8.70;99.90;;;;;;5054405;28;20067;-67
2022/05/04 06:16:19;;;;;;;16.88;3.90;;;8.60;99.90;;;;;;5053756;28;20324;-67
2022/05/04 06:18:45;;;;;;;12.80;3.60;;;8.70;99.90;;;;;;5054030;28;20107;-68
2022/05/04 06:21:10;;;;;;;10.63;3.38;;;8.80;99.90;;;;;;5054161;28;20049;-69
2022/05/04 06:23:36;;;;;;;13.57;4.30;;;8.80;99.90;;;;;;5054672;28;20466;-67
2022/05/04 06:26:02;;;;;;;6.88;2.97;;;8.80;99.90;;;;;;5054334;28;20041;-68
2022/05/04 06:28:27;;;;;;;7.45;2.97;;;8.80;99.90;;;;;;5054506;28;20100;-69
2022/05/04 06:36:21;;;;;;;8.25;3.30;;;9.10;99.90;;;;;;5054267;28;20044;-68
2022/05/04 06:38:47;;;;;;;10.48;3.92;;;9.30;99.90;;;;;;5037065;28;20052;-67
2022/05/04 06:41:14;;;;;;;10.35;3.40;;;9.30;99.90;;;;;;5054238;28;20098;-67
2022/05/04 06:43:40;;;;;;;9.40;3.28;;;9.40;99.90;;;;;;5053991;28;20056;-68
2022/05/04 06:46:05;;;;;;;10.35;3.58;;;9.30;99.90;;;;;;5054071;28;20049;-66
2022/05/04 06:48:31;;;;;;;8.70;3.63;;;9.30;99.90;;;;;;5054391;28;20045;-67
2022/05/04 06:50:57;;;;;;;13.27;3.53;;;9.40;99.90;;;;;;5035102;28;20370;-66
2022/05/04 06:53:22;;;;;;;12.38;3.90;;;9.40;99.90;;;;;;5034543;28;20047;-68
2022/05/04 06:55:48;;;;;;;19.35;4.18;;;9.40;99.90;;;;;;5031860;28;20046;-66
2022/05/04 06:58:13;;;;;;;11.23;3.20;;;9.60;99.90;;;;;;5038085;28;20049;-69
2022/05/04 07:00:39;;;;;;;8.63;3.47;;;9.60;99.90;;;;;;5037773;28;20049;-64
2022/05/04 07:03:04;;;;;;;8.75;3.47;;;9.60;99.90;;;;;;5020392;28;20375;-64
2022/05/04 07:05:30;;;;;;;10.15;3.90;;;9.70;99.90;;;;;;5037694;28;20071;-66
2022/05/04 07:07:55;;;;;;;9.55;3.65;;;9.70;99.90;;;;;;5056684;28;20086;-66
2022/05/04 07:10:21;;;;;;;10.10;3.78;;;9.80;99.90;;;;;;5057346;28;20041;-65
2022/05/04 07:12:48;;;;;;;8.85;3.40;;;9.80;99.90;;;;;;5057548;28;20041;-65
2022/05/04 07:15:14;;;;;;;8.98;3.78;;;9.90;99.90;;;;;;5057225;28;20053;-65
2022/05/04 07:17:40;;;;;;;8.23;3.70;;;9.90;99.90;;;;;;5057129;28;20040;-66
2022/05/04 07:20:06;;;;;;;8.00;3.47;;;10.00;99.90;;;;;;5023682;28;20128;-66
2022/05/04 07:22:32;;;;;;;12.75;4.38;;;10.00;99.90;;;;;;5022327;28;20458;-65
2022/05/04 07:24:58;;;;;;;8.57;3.33;;;9.90;99.90;;;;;;5056624;28;20045;-66
2022/05/04 07:27:23;;;;;;;10.05;3.25;;;9.90;99.90;;;;;;5056949;28;20051;-65
2022/05/04 07:29:49;;;;;;;11.02;3.22;;;10.00;99.90;;;;;;5056869;28;20040;-66
2022/05/04 07:32:15;;;;;;;8.80;3.83;;;10.00;99.90;;;;;;5056470;28;20045;-66
2022/05/04 07:34:40;;;;;;;10.10;3.65;;;10.00;99.90;;;;;;5056573;28;20064;-66
2022/05/04 07:37:06;;;;;;;7.10;2.92;;;10.00;99.90;;;;;;5057078;28;20049;-66
2022/05/04 07:42:21;;;;;;;13.10;3.65;;;10.10;99.90;;;;;;5036292;28;20523;-66
2022/05/04 07:44:47;;;;;;;11.63;4.32;;;10.20;99.90;;;;;;5037137;28;20045;-65
2022/05/04 07:47:13;;;;;;;7.10;3.35;;;10.20;99.90;;;;;;5037004;28;20136;-65
2022/05/04 07:49:40;;;;;;;8.23;3.65;;;10.20;99.90;;;;;;5036789;28;20140;-65
2022/05/04 07:52:06;;;;;;;10.70;3.55;;;10.40;99.90;;;;;;5019654;28;20069;-65
2022/05/04 07:54:31;;;;;;;10.27;3.22;;;10.40;99.90;;;;;;5040566;28;20056;-65
2022/05/04 07:56:57;;;;;;;10.63;3.75;;;10.40;99.90;;;;;;5055977;28;20091;-66
2022/05/04 07:59:22;;;;;;;11.82;4.35;;;10.40;99.90;;;;;;5056330;28;20119;-66
2022/05/04 08:04:34;;;;;;;10.00;3.90;;;10.40;99.90;;;;;;5056295;28;20056;-65
2022/05/04 08:07:00;;;;;;;10.00;3.60;;;10.40;99.90;;;;;;5038386;28;20477;-66
2022/05/04 08:09:26;;;;;;;8.82;3.63;;;10.40;99.90;;;;;;5038486;28;20041;-67
2022/05/04 08:11:51;;;;;;;11.43;3.70;;;10.40;99.90;;;;;;5056389;28;20459;-66
2022/05/04 08:14:17;;;;;;;7.35;3.72;;;10.40;99.90;;;;;;5055633;28;20052;-65
2022/05/04 08:16:43;;;;;;;11.23;3.72;;;10.40;99.90;;;;;;5056406;28;20044;-65
2022/05/04 08:19:08;;;;;;;11.20;3.75;;;10.40;99.90;;;;;;5056317;28;20049;-66
2022/05/04 08:21:36;;;;;;;10.77;4.40;;;10.50;99.90;;;;;;5056422;28;20435;-65
2022/05/04 08:24:02;;;;;;;9.20;3.53;;;10.40;99.90;;;;;;5038417;28;20379;-65
2022/05/04 08:26:27;;;;;;;10.60;3.97;;;10.60;99.90;;;;;;5056153;28;20049;-67
2022/05/04 08:28:53;;;;;;;9.57;3.45;;;10.60;99.90;;;;;;5056349;28;20520;-65
2022/05/04 08:31:21;;;;;;;12.90;4.28;;;10.70;99.90;;;;;;5054957;28;20451;-66
2022/05/04 08:33:48;;;;;;;16.88;3.95;;;10.70;99.90;;;;;;5053413;28;20463;-66
2022/05/04 08:36:13;;;;;;;11.65;3.60;;;10.80;99.90;;;;;;5056078;28;20103;-66
2022/05/04 08:38:39;;;;;;;12.18;3.75;;;10.80;99.90;;;;;;5037765;28;20045;-66
2022/05/04 08:41:06;;;;;;;8.18;3.53;;;10.70;99.90;;;;;;5055751;28;20115;-67
2022/05/04 08:43:32;;;;;;;16.25;4.25;;;10.60;99.90;;;;;;5055846;28;20064;-65
2022/05/04 08:46:01;;;;;;;11.23;3.67;;;10.60;99.90;;;;;;5055725;28;20378;-66
2022/05/04 08:48:29;;;;;;;10.95;4.13;;;10.70;99.90;;;;;;5055007;28;20059;-66
2022/05/04 08:50:55;;;;;;;12.57;3.80;;;10.60;99.90;;;;;;5055064;28;20458;-66
2022/05/04 08:53:20;;;;;;;11.88;4.07;;;10.60;99.90;;;;;;5037689;28;20044;-65
2022/05/04 08:55:47;;;;;;;14.43;3.90;;;10.60;99.90;;;;;;5055203;28;20072;-67
2022/05/04 08:58:13;;;;;;;8.23;3.85;;;10.60;99.90;;;;;;5055609;28;20037;-66
2022/05/04 09:00:38;;;;;;;10.50;4.00;;;10.70;99.90;;;;;;5055592;28;20075;-66
2022/05/04 09:03:07;;;;;;;14.60;4.18;;;10.80;99.90;;;;;;5021781;28;20040;-66
2022/05/04 09:05:41;;;;;;;8.90;3.78;;;10.90;99.90;;;;;;5054625;28;20370;-66
2022/05/04 09:08:08;;;;;;;;;;;11.10;99.90;;;;;;5055893;28;20343;-66
2022/05/04 09:10:38;;;;;;;11.27;3.65;;;11.30;99.90;;;;;;5054734;28;20392;-67
2022/05/04 09:13:04;;;;;;;10.40;3.40;;;11.50;99.90;;;;;;5052303;28;20128;-66
2022/05/04 09:15:35;;;;;;;9.40;3.45;;;11.50;99.90;;;;;;5055296;28;20103;-66
2022/05/04 09:18:03;;;;;;;8.93;4.05;;;11.50;99.90;;;;;;5054617;28;20593;-67
2022/05/04 09:20:45;;;;;;;8.80;3.70;;;11.70;99.90;;;;;;5054875;28;20206;-67
2022/05/04 09:23:16;;;;;;;7.22;3.20;;;12.00;99.90;;;;;;5054270;28;20048;-66
2022/05/04 09:25:42;;;;;;;7.80;3.65;;;12.30;99.90;;;;;;5054994;28;20178;-66
2022/05/04 09:28:14;;;;;;;9.80;4.25;;;12.40;99.90;;;;;;5055010;28;20087;-66
2022/05/04 09:30:49;;;;;;;9.15;3.28;;;12.50;99.90;;;;;;5054232;28;20505;-66
2022/05/04 09:33:38;;;;;;;;;;;12.40;99.90;;;;;;5054996;28;20064;-66
2022/05/04 09:36:05;;;;;;;7.05;3.47;;;12.20;99.90;;;;;;5044774;28;19920;-65
2022/05/04 09:46:52;;;;;;;9.13;4.00;;;11.80;99.90;;;;;;5034860;28;20422;-65
2022/05/04 09:49:27;;;;;;;14.25;3.58;;;11.40;99.90;;;;;;5034748;28;20115;-67
2022/05/04 09:51:54;;;;;;;10.10;4.15;;;11.50;99.90;;;;;;5034773;28;20057;-66
2022/05/04 09:54:27;;;;;;;10.88;3.70;;;11.70;99.90;;;;;;5037648;28;20049;-67
2022/05/04 09:56:58;;;;;;;6.72;3.53;;;11.90;99.90;;;;;;5053637;28;20052;-66
2022/05/04 09:59:29;;;;;;;8.55;3.22;;;12.30;99.90;;;;;;5054702;28;20363;-66
2022/05/04 10:01:56;;;;;;;13.32;3.90;;;12.50;99.90;;;;;;5054456;28;20102;-67
2022/05/04 10:04:23;;;;;;;8.27;3.78;;;12.40;99.90;;;;;;5054179;28;20052;-66
2022/05/04 10:06:49;;;;;;;11.07;3.75;;;12.30;99.90;;;;;;5054561;28;20102;-66
2022/05/04 10:09:15;;;;;;;8.82;3.72;;;12.60;99.90;;;;;;5051297;28;20064;-66
2022/05/04 10:11:40;;;;;;;10.57;3.97;;;12.60;99.90;;;;;;5054424;28;20053;-66
2022/05/04 10:14:09;;;;;;;12.18;4.30;;;12.60;99.90;;;;;;5050382;28;20041;-66
2022/05/04 10:16:42;;;;;;;9.57;3.60;;;12.50;99.90;;;;;;5054053;28;20124;-67
2022/05/04 10:19:16;;;;;;;8.38;4.00;;;12.50;99.90;;;;;;5037671;28;20101;-67
2022/05/04 10:21:43;;;;;;;10.68;4.07;;;12.10;99.90;;;;;;5054497;28;20186;-67
2022/05/04 10:24:10;;;;;;;8.40;3.83;;;12.00;99.90;;;;;;5054627;28;20041;-65
2022/05/04 10:26:37;;;;;;;12.82;4.45;;;12.00;99.90;;;;;;5054507;28;20446;-68
2022/05/04 10:32:07;;;;;;;12.90;3.90;;;11.90;99.90;;;;;;5038171;28;20049;-67
2022/05/04 10:34:33;;;;;;;11.27;4.25;;;11.90;99.90;;;;;;5034852;28;20543;-65
2022/05/04 10:36:59;;;;;;;9.63;4.45;;;12.10;99.90;;;;;;5053091;28;20049;-66
2022/05/04 10:39:24;;;;;;;11.10;4.43;;;12.00;99.90;;;;;;5058138;28;20455;-66
2022/05/04 10:41:50;;;;;;;11.75;4.35;;;12.10;99.90;;;;;;5040633;28;20088;-67
2022/05/04 10:44:17;;;;;;;8.80;4.55;;;11.90;99.90;;;;;;5057728;28;20072;-66
2022/05/04 10:46:46;;;;;;;11.35;4.72;;;12.10;99.90;;;;;;5057336;28;20348;-66
2022/05/04 10:49:14;;;;;;;16.20;4.95;;;12.30;99.90;;;;;;5058251;28;20379;-66
2022/05/04 10:51:42;;;;;;;11.30;4.60;;;12.30;99.90;;;;;;5057852;28;20057;-68
2022/05/04 10:54:11;;;;;;;10.93;4.32;;;12.40;99.90;;;;;;5057283;28;20063;-67
2022/05/04 10:56:42;;;;;;;8.70;4.00;;;12.60;99.90;;;;;;5057734;28;20040;-67
2022/05/04 10:59:08;;;;;;;11.00;4.38;;;12.80;99.90;;;;;;5057878;28;20045;-66
2022/05/04 11:01:39;;;;;;;10.18;4.95;;;12.90;99.90;;;;;;5057921;28;20041;-67
2022/05/04 11:04:09;;;;;;;18.55;5.50;;;12.60;99.90;;;;;;5056763;28;20059;-67
2022/05/04 11:06:43;;;;;;;9.93;4.65;;;12.60;99.90;;;;;;5057406;28;20052;-65
2022/05/04 11:09:10;;;;;;;;;;;12.70;99.90;;;;;;5057770;28;20053;-66
2022/05/04 11:11:57;;;;;;;13.35;5.53;;;12.50;99.90;;;;;;5057448;28;19920;-65
2022/05/04 11:14:23;;;;;;;12.88;4.75;;;12.50;99.90;;;;;;5057665;28;20056;-69
2022/05/04 11:16:50;;;;;;;12.15;5.07;;;12.50;99.90;;;;;;5057351;28;20041;-68
2022/05/04 11:19:16;;;;;;;9.90;4.78;;;12.70;99.90;;;;;;5039492;28;20071;-68
2022/05/04 11:21:42;;;;;;;12.77;5.00;;;12.70;99.90;;;;;;5056581;28;20052;-67
2022/05/04 11:24:09;;;;;;;9.32;5.18;;;12.90;99.90;;;;;;5056501;28;20044;-65
2022/05/04 11:26:47;;;;;;;15.68;5.30;;;12.90;99.90;;;;;;5057018;28;20491;-65
2022/05/04 11:29:24;;;;;;;11.52;4.97;;;13.10;99.90;;;;;;5057021;28;20036;-66
2022/05/04 11:31:57;;;;;;;11.43;5.90;;;13.30;99.90;;;;;;5056778;28;20048;-66
2022/05/04 11:34:24;;;;;;;16.48;5.10;;;13.20;99.90;;;;;;5056619;28;20081;-65
2022/05/04 11:36:51;;;;;;;13.25;5.10;;;12.90;99.90;;;;;;5057279;28;20040;-67
2022/05/04 11:39:22;;;;;;;12.32;5.00;;;12.90;99.90;;;;;;5056262;28;20037;-67
2022/05/04 11:41:49;;;;;;;9.80;5.53;;;13.00;99.90;;;;;;5056884;28;20069;-65
2022/05/04 11:44:15;;;;;;;9.35;4.78;;;13.00;99.90;;;;;;5056569;28;20044;-65
2022/05/04 11:46:44;;;;;;;9.20;5.15;;;13.20;99.90;;;;;;5056807;28;20048;-68
2022/05/04 11:49:11;;;;;;;10.95;5.55;;;13.30;99.90;;;;;;5056810;28;20394;-68
2022/05/04 11:51:37;;;;;;;10.00;5.03;;;13.40;99.90;;;;;;5056702;28;20084;-68
2022/05/04 11:54:04;;;;;;;11.15;4.90;;;13.40;99.90;;;;;;5056671;28;20044;-68
2022/05/04 11:56:29;;;;;;;12.25;4.88;;;13.50;99.90;;;;;;5055899;28;20041;-68
2022/05/04 11:58:55;;;;;;;13.25;5.93;;;13.50;99.90;;;;;;5056063;28;20047;-65
2022/05/04 12:01:21;;;;;;;13.48;5.57;;;13.40;99.90;;;;;;5056529;28;20048;-65
2022/05/04 12:03:47;;;;;;;12.50;5.13;;;13.50;99.90;;;;;;5056655;28;20122;-65
2022/05/04 12:06:13;;;;;;;9.02;5.57;;;13.40;99.90;;;;;;5056632;28;20471;-65
2022/05/04 12:08:42;;;;;;;11.52;5.70;;;13.60;99.90;;;;;;5056553;28;20045;-67
2022/05/04 12:11:09;;;;;;;11.18;5.90;;;13.80;99.90;;;;;;5056350;28;20071;-68
2022/05/04 12:13:37;;;;;;;8.73;5.68;;;13.60;99.90;;;;;;5055343;28;20063;-68
2022/05/04 12:16:03;;;;;;;13.43;5.65;;;13.60;99.90;;;;;;5056286;28;20099;-65
2022/05/04 12:18:32;;;;;;;9.18;5.20;;;13.80;99.90;;;;;;5056184;28;20055;-66
2022/05/04 12:21:07;;;;;;;13.40;4.95;;;13.90;99.90;;;;;;5056356;28;20056;-66
2022/05/04 12:23:34;;;;;;;10.35;5.75;;;14.30;99.90;;;;;;5039040;28;20056;-67
2022/05/04 12:26:01;;;;;;;7.85;5.05;;;14.30;99.90;;;;;;5055830;28;20045;-66
2022/05/04 12:28:27;;;;;;;13.32;5.45;;;14.60;99.90;;;;;;5056065;28;20048;-65
2022/05/04 12:33:40;;;;;;;7.47;5.10;;;15.10;99.90;;;;;;5056077;28;20053;-65
2022/05/04 12:36:10;;;;;;;9.27;5.50;;;15.40;99.90;;;;;;5055675;28;20049;-65
2022/05/04 12:38:38;;;;;;;10.23;5.35;;;15.90;99.90;;;;;;5055919;28;20044;-66
2022/05/04 12:41:07;;;;;;;14.40;5.60;;;16.30;99.90;;;;;;5055887;28;20045;-68
2022/05/04 12:43:37;;;;;;;9.60;5.40;;;17.20;99.90;;;;;;5055767;28;20064;-67
2022/05/04 12:46:08;;;;;;;9.60;5.03;;;17.80;99.60;;;;;;5054941;28;20072;-66
2022/05/04 12:48:36;;;;;;;9.25;5.07;;;17.80;98.60;;;;;;5055709;28;20091;-68
2022/05/04 12:51:03;;;;;;;11.80;5.07;;;18.30;97.70;;;;;;5054615;28;20051;-67
2022/05/04 12:53:28;;;;;;;9.23;4.90;;;18.30;96.50;;;;;;5055304;28;20507;-67
2022/05/04 12:58:39;;;;;;;9.50;5.80;;;19.00;95.00;;;;;;5054617;28;20045;-66
2022/05/04 13:01:05;;;;;;;9.13;5.32;;;18.80;92.90;;;;;;5055606;28;20408;-67
2022/05/04 13:03:34;;;;;;;9.10;5.25;;;17.80;93.80;;;;;;5054440;28;20102;-68
2022/05/04 13:06:00;;;;;;;13.43;5.45;;;18.00;94.60;;;;;;5041228;28;20045;-68
2022/05/04 13:08:26;;;;;;;7.82;4.78;;;18.60;95.20;;;;;;5054258;28;20469;-70
2022/05/04 13:10:53;;;;;;;9.38;5.50;;;18.70;94.40;;;;;;5054822;28;20110;-67
2022/05/04 13:13:20;;;;;;;8.70;5.03;;;18.70;93.50;;;;;;5017919;28;20046;-67
2022/05/04 13:15:47;;;;;;;11.20;5.93;;;19.20;93.10;;;;;;5035453;28;20451;-67
2022/05/04 13:18:13;;;;;;;11.90;5.47;;;19.50;93.80;;;;;;5053299;28;20057;-69
2022/05/04 13:20:38;;;;;;;9.15;5.28;;;19.40;92.20;;;;;;5055323;28;20470;-71
2022/05/04 13:23:04;;;;;;;11.10;5.18;;;19.80;92.00;;;;;;5055136;28;20518;-70
2022/05/04 13:25:30;;;;;;;8.93;4.93;;;20.60;90.90;;;;;;5055174;28;20359;-69